Time;durP1;ratioP1;P1;durP2;ratioP2;P2;SDS_P1;SDS_P2;PMS_P1;PMS_P2;Temp;Humidity;BMP_temperature;BMP_pressure;BME280_temperature;BME280_humidity;BME280_pressure;Samples;Min_cycle;Max_cycle;Signal;HPM_P1;HPM_P2
2022/07/24 00:01:46;;;;;;;0.75;0.57;;;;;;;26.28;37.77;101739.81;5082927;28;20056;-46
2022/07/24 00:04:14;;;;;;;3.20;0.85;;;;;;;26.20;37.95;101718.66;5083299;28;20027;-52
2022/07/24 00:06:43;;;;;;;2.60;0.40;;;;;;;26.31;37.85;101728.47;5099256;28;20040;-44
2022/07/24 00:09:10;;;;;;;0.40;0.40;;;;;;;26.24;38.12;101737.97;5100783;28;20028;-50
2022/07/24 00:11:38;;;;;;;3.72;0.40;;;;;;;26.15;37.92;101724.69;5103650;28;20032;-44
2022/07/24 00:14:07;;;;;;;1.08;0.40;;;;;;;26.03;37.90;101713.09;5105146;28;20032;-45
2022/07/24 00:16:34;;;;;;;1.90;0.52;;;;;;;26.12;38.29;101722.91;5086296;28;20031;-45
2022/07/24 00:19:02;;;;;;;2.78;0.40;;;;;;;26.17;38.00;101729.09;5105143;28;20059;-55
2022/07/24 00:21:30;;;;;;;3.13;0.63;;;;;;;26.17;38.30;101726.47;5104980;28;20023;-51
2022/07/24 00:23:57;;;;;;;1.90;0.68;;;;;;;26.03;38.01;101706.94;5104653;28;20595;-45
2022/07/24 00:26:26;;;;;;;1.75;0.47;;;;;;;26.09;38.08;101730.72;5103878;28;20713;-46
2022/07/24 00:28:54;;;;;;;1.65;0.60;;;;;;;26.06;38.20;101733.28;5104658;28;20031;-50
2022/07/24 00:31:22;;;;;;;2.15;0.47;;;;;;;25.88;38.05;101697.94;5105607;28;20035;-53
2022/07/24 00:33:50;;;;;;;1.27;0.70;;;;;;;26.03;37.96;101725.34;5069586;28;20039;-48
2022/07/24 00:36:20;;;;;;;0.82;0.47;;;;;;;25.97;38.35;101709.50;5085612;28;20042;-47
2022/07/24 00:38:48;;;;;;;0.85;0.57;;;;;;;25.86;37.91;101689.16;5087350;28;20070;-54
2022/07/24 00:41:17;;;;;;;0.68;0.40;;;;;;;26.07;37.92;101708.75;5104273;28;20031;-49
2022/07/24 00:44:08;;;;;;;0.70;0.50;;;;;;;26.07;38.00;101720.16;5104114;28;20704;-50
2022/07/24 00:46:38;;;;;;;1.65;0.50;;;;;;;26.04;37.91;101713.97;5095587;28;20040;-45
2022/07/24 00:49:08;;;;;;;1.23;0.45;;;;;;;25.94;38.00;101699.78;5087262;28;20027;-51
2022/07/24 00:51:36;;;;;;;1.70;0.65;;;;;;;25.93;37.90;101698.03;5086937;28;20042;-55
2022/07/24 00:54:06;;;;;;;0.57;0.43;;;;;;;25.91;38.22;101700.63;5104672;28;20100;-50
2022/07/24 00:56:34;;;;;;;1.02;0.50;;;;;;;25.99;38.06;101707.75;5103811;28;20027;-50
2022/07/24 00:59:03;;;;;;;1.27;0.40;;;;;;;25.98;38.01;101711.25;5104252;28;20100;-46
2022/07/24 01:01:32;;;;;;;1.63;0.40;;;;;;;25.81;37.82;101684.69;5103812;28;20036;-45
2022/07/24 01:04:00;;;;;;;1.67;0.55;;;;;;;25.93;38.00;101701.53;5086116;28;20110;-50
2022/07/24 01:06:29;;;;;;;1.45;0.90;;;;;;;25.94;37.81;101705.94;5103352;28;20042;-44
2022/07/24 01:08:57;;;;;;;0.65;0.50;;;;;;;25.84;38.14;101680.34;5085595;28;20032;-51
2022/07/24 01:11:26;;;;;;;0.80;0.45;;;;;;;25.92;37.99;101698.88;5085586;28;20031;-48
2022/07/24 01:13:53;;;;;;;1.23;0.50;;;;;;;25.85;37.85;101689.13;5085784;28;20070;-44
2022/07/24 01:16:22;;;;;;;5.30;0.65;;;;;;;25.76;38.06;101685.47;5084883;28;20474;-45
2022/07/24 01:18:50;;;;;;;0.95;0.50;;;;;;;25.84;38.22;101690.00;5103675;28;20028;-49
2022/07/24 01:21:18;;;;;;;2.15;0.50;;;;;;;25.69;38.04;101672.22;5103989;28;20035;-45
2022/07/24 01:23:47;;;;;;;1.75;0.60;;;;;;;25.73;38.06;101685.41;5103591;28;20039;-52
2022/07/24 01:26:15;;;;;;;1.50;0.50;;;;;;;25.75;38.16;101688.97;5104671;28;20038;-46
2022/07/24 01:28:43;;;;;;;1.27;0.60;;;;;;;25.77;38.13;101687.25;5103716;28;20040;-46
2022/07/24 01:31:11;;;;;;;0.85;0.30;;;;;;;25.78;37.85;101683.75;5102854;28;20652;-51
2022/07/24 01:33:39;;;;;;;1.10;0.70;;;;;;;25.77;37.80;101681.13;5103750;28;20043;-50
2022/07/24 01:36:07;;;;;;;0.82;0.40;;;;;;;25.72;38.07;101667.91;5102967;28;20034;-43
2022/07/24 01:38:36;;;;;;;3.05;0.60;;;;;;;25.62;38.21;101658.09;5104852;28;20023;-47
2022/07/24 01:41:03;;;;;;;0.75;0.40;;;;;;;25.70;38.26;101671.34;5106409;28;20670;-50
2022/07/24 01:43:32;;;;;;;1.90;0.63;;;;;;;25.68;37.87;101660.84;5104645;28;20133;-57
2022/07/24 01:46:01;;;;;;;0.75;0.55;;;;;;;25.69;38.09;101653.81;5103447;28;20669;-51
2022/07/24 01:48:29;;;;;;;0.60;0.40;;;;;;;25.71;37.87;101653.00;5085801;28;20576;-54
2022/07/24 01:50:56;;;;;;;0.35;0.30;;;;;;;25.73;37.95;101658.28;5102697;28;20028;-50
2022/07/24 01:53:24;;;;;;;2.70;0.80;;;;;;;25.72;38.15;101657.41;5103791;28;20035;-47
2022/07/24 01:55:54;;;;;;;1.15;0.43;;;;;;;25.69;37.83;101646.84;5102747;28;20031;-55
2022/07/24 01:58:22;;;;;;;0.63;0.35;;;;;;;25.69;38.01;101640.69;5068124;28;20039;-47
2022/07/24 02:00:50;;;;;;;1.25;0.43;;;;;;;25.78;37.92;101648.72;5102882;28;20571;-45
2022/07/24 02:03:18;;;;;;;3.70;0.68;;;;;;;25.78;37.89;101648.72;5104404;28;20050;-51
2022/07/24 02:05:47;;;;;;;0.85;0.50;;;;;;;25.74;37.88;101649.53;5102314;28;20047;-55
2022/07/24 02:08:14;;;;;;;1.08;0.40;;;;;;;25.70;37.60;101643.34;5084662;28;20055;-45
2022/07/24 02:10:43;;;;;;;0.60;0.40;;;;;;;25.65;37.92;101646.78;5102155;28;20122;-45
2022/07/24 02:13:11;;;;;;;0.52;0.30;;;;;;;25.61;37.82;101649.34;5102663;28;20028;-46
2022/07/24 02:15:40;;;;;;;0.40;0.32;;;;;;;25.53;37.74;101637.81;5103265;28;20043;-45
2022/07/24 02:18:08;;;;;;;2.22;0.82;;;;;;;25.50;38.00;101640.38;5103231;28;20081;-49
2022/07/24 02:20:36;;;;;;;0.45;0.35;;;;;;;25.39;38.02;101623.50;5084383;28;20053;-44
2022/07/24 02:23:05;;;;;;;1.13;0.52;;;;;;;25.52;38.06;101636.03;5084420;28;20031;-45
2022/07/24 02:25:33;;;;;;;1.05;0.47;;;;;;;25.56;37.84;101635.22;5101185;28;20842;-48
2022/07/24 02:28:01;;;;;;;1.00;0.40;;;;;;;25.51;37.53;101609.75;5102406;28;20163;-48
2022/07/24 02:30:28;;;;;;;0.98;0.40;;;;;;;25.67;37.52;101609.13;5101863;28;20036;-44
2022/07/24 02:32:57;;;;;;;1.05;0.50;;;;;;;25.65;37.78;101609.97;5102039;28;20027;-50
2022/07/24 02:35:25;;;;;;;2.53;0.57;;;;;;;25.57;37.76;101615.97;5083571;28;20066;-46
2022/07/24 02:37:54;;;;;;;0.45;0.30;;;;;;;25.47;37.87;101608.81;5083357;28;20035;-52
2022/07/24 02:40:22;;;;;;;1.00;0.55;;;;;;;25.50;38.03;101605.34;5083377;28;20055;-46
2022/07/24 02:42:51;;;;;;;1.20;0.50;;;;;;;25.58;37.69;101623.00;5102051;28;20023;-45
2022/07/24 02:45:19;;;;;;;0.55;0.50;;;;;;;25.66;37.75;101624.84;5100993;28;20171;-44
2022/07/24 02:47:49;;;;;;;1.58;0.50;;;;;;;25.55;37.50;101616.81;5083561;28;20043;-48
2022/07/24 02:50:18;;;;;;;1.05;0.43;;;;;;;25.40;37.76;101605.13;5101707;28;20055;-50
2022/07/24 02:52:47;;;;;;;0.32;0.30;;;;;;;25.57;37.85;101625.59;5066772;28;20028;-47
2022/07/24 02:55:16;;;;;;;1.08;0.50;;;;;;;25.51;37.77;101628.13;5100295;28;20055;-49
2022/07/24 02:57:43;;;;;;;1.10;0.40;;;;;;;25.48;37.85;101624.59;5083603;28;20402;-47
2022/07/24 03:00:15;;;;;;;0.60;0.50;;;;;;;25.47;37.93;101621.94;5101617;28;20431;-46
2022/07/24 03:02:43;;;;;;;1.02;0.50;;;;;;;25.50;37.88;101605.34;5100940;28;20486;-49
2022/07/24 03:05:12;;;;;;;0.85;0.60;;;;;;;25.45;37.83;101610.53;5100903;28;20102;-48
2022/07/24 03:07:41;;;;;;;0.70;0.30;;;;;;;25.44;37.92;101604.38;5101607;28;21412;-48
2022/07/24 03:10:11;;;;;;;2.13;0.75;;;;;;;25.39;38.01;101592.91;5100993;28;20123;-48
2022/07/24 03:12:39;;;;;;;0.30;0.30;;;;;;;25.30;37.76;101583.13;5101588;28;20089;-46
2022/07/24 03:15:08;;;;;;;0.63;0.40;;;;;;;25.45;37.64;101586.88;5082093;28;20107;-53
2022/07/24 03:17:35;;;;;;;1.00;0.55;;;;;;;25.39;37.92;101592.00;5101070;28;20092;-49
2022/07/24 03:20:03;;;;;;;0.90;0.40;;;;;;;25.37;37.62;101570.06;5100991;28;20034;-50
2022/07/24 03:22:32;;;;;;;0.40;0.32;;;;;;;25.42;37.59;101579.81;5082787;28;20096;-47
2022/07/24 03:25:01;;;;;;;1.25;0.55;;;;;;;25.36;37.87;101584.06;5100678;28;20105;-50
2022/07/24 03:27:29;;;;;;;0.68;0.40;;;;;;;25.38;37.78;101585.88;5083187;28;20036;-55
2022/07/24 03:29:56;;;;;;;0.93;0.35;;;;;;;25.40;37.97;101571.00;5100875;28;20046;-48
2022/07/24 03:32:25;;;;;;;1.92;0.50;;;;;;;25.37;37.91;101573.59;5101350;28;20032;-49
2022/07/24 03:34:53;;;;;;;1.00;0.52;;;;;;;25.38;37.66;101575.38;5100187;28;20406;-50
2022/07/24 03:37:22;;;;;;;0.45;0.40;;;;;;;25.29;37.67;101570.84;5100840;28;20083;-46
2022/07/24 03:39:49;;;;;;;1.15;0.55;;;;;;;25.32;37.68;101577.88;5101079;28;20055;-53
2022/07/24 03:42:18;;;;;;;0.70;0.50;;;;;;;25.29;37.95;101564.69;5101132;28;20058;-54
2022/07/24 03:44:46;;;;;;;1.27;0.30;;;;;;;25.27;37.89;101559.44;5100117;28;20129;-50
2022/07/24 03:47:14;;;;;;;1.40;0.40;;;;;;;25.29;37.73;101562.97;5104637;28;20508;-48
2022/07/24 03:49:41;;;;;;;1.60;0.55;;;;;;;25.40;37.48;101557.88;5104686;28;20080;-50
2022/07/24 03:52:09;;;;;;;0.50;0.40;;;;;;;25.40;37.49;101572.75;5087266;28;20091;-47
2022/07/24 03:54:38;;;;;;;0.52;0.30;;;;;;;25.32;37.69;101573.50;5104587;28;20478;-48
2022/07/24 03:57:06;;;;;;;1.45;0.80;;;;;;;25.23;37.83;101568.09;5086730;28;20036;-49
2022/07/24 03:59:33;;;;;;;0.50;0.30;;;;;;;25.21;38.04;101575.06;5105127;28;20035;-53
2022/07/24 04:02:01;;;;;;;1.13;0.40;;;;;;;25.18;38.04;101562.78;5104544;28;21291;-52
2022/07/24 04:04:30;;;;;;;1.98;0.47;;;;;;;25.21;37.77;101567.19;5086242;28;20043;-53
2022/07/24 04:06:57;;;;;;;1.27;0.52;;;;;;;25.25;37.65;101571.63;5085806;28;20494;-48
2022/07/24 04:09:26;;;;;;;0.75;0.57;;;;;;;25.13;37.80;101566.19;5104411;28;20794;-56
2022/07/24 04:11:53;;;;;;;0.60;0.60;;;;;;;25.16;38.00;101566.22;5104821;28;20027;-54
2022/07/24 04:14:20;;;;;;;0.73;0.40;;;;;;;25.20;37.88;101565.41;5104517;28;20036;-50
2022/07/24 04:16:49;;;;;;;1.13;0.60;;;;;;;25.21;37.71;101561.94;5085425;28;20596;-47
2022/07/24 04:19:17;;;;;;;0.75;0.43;;;;;;;25.31;37.44;101562.97;5104446;28;20413;-53
2022/07/24 04:21:46;;;;;;;0.50;0.25;;;;;;;25.14;37.70;101558.31;5104276;28;20019;-50
2022/07/24 04:24:14;;;;;;;0.60;0.30;;;;;;;25.11;37.64;101562.66;5086458;28;20032;-49
2022/07/24 04:26:42;;;;;;;1.65;0.30;;;;;;;25.12;37.71;101565.28;5102628;28;20086;-47
2022/07/24 04:29:11;;;;;;;2.90;0.50;;;;;;;25.21;37.70;101561.94;5104158;28;20031;-48
2022/07/24 04:31:39;;;;;;;0.68;0.40;;;;;;;25.23;37.65;101560.22;5104551;28;20126;-49
2022/07/24 04:34:08;;;;;;;0.82;0.57;;;;;;;25.28;37.71;101561.19;5104595;28;20059;-56
2022/07/24 04:36:36;;;;;;;1.00;0.50;;;;;;;25.16;37.54;101553.09;5084807;28;20096;-50
2022/07/24 04:39:03;;;;;;;0.70;0.52;;;;;;;25.11;37.82;101553.00;5103975;28;20093;-50
2022/07/24 04:41:32;;;;;;;0.38;0.32;;;;;;;25.17;37.47;101554.84;5104265;28;20028;-55
2022/07/24 04:43:59;;;;;;;1.65;0.50;;;;;;;25.19;37.42;101555.78;5103882;28;20038;-53
2022/07/24 04:46:28;;;;;;;1.08;0.80;;;;;;;25.17;37.69;101557.47;5101971;28;20039;-47
2022/07/24 04:48:55;;;;;;;0.75;0.50;;;;;;;25.27;37.18;101553.28;5104117;28;20031;-55
2022/07/24 04:51:24;;;;;;;1.95;0.43;;;;;;;25.18;37.36;101562.78;5103886;28;20046;-47
2022/07/24 04:53:55;;;;;;;2.35;0.40;;;;;;;25.14;37.42;101554.81;5103693;28;20035;-47
2022/07/24 04:56:23;;;;;;;2.80;0.40;;;;;;;25.17;37.68;101573.22;5101699;28;20275;-46
2022/07/24 04:58:51;;;;;;;0.95;0.50;;;;;;;25.34;37.03;101570.91;5103824;28;20027;-48
2022/07/24 05:01:19;;;;;;;3.13;0.57;;;;;;;25.26;37.30;101570.78;5103711;28;20028;-50
2022/07/24 05:03:47;;;;;;;1.35;0.50;;;;;;;25.25;37.40;101574.25;5103902;28;20063;-53
2022/07/24 05:06:15;;;;;;;0.77;0.50;;;;;;;25.16;37.21;101551.34;5102194;28;20037;-49
2022/07/24 05:08:44;;;;;;;1.20;0.68;;;;;;;25.22;37.57;101565.47;5103694;28;20077;-52
2022/07/24 05:11:12;;;;;;;1.25;0.32;;;;;;;25.34;37.06;101569.16;5104091;28;20028;-46
2022/07/24 05:13:40;;;;;;;1.35;0.55;;;;;;;25.17;37.70;101560.09;5103200;28;20081;-52
2022/07/24 05:16:09;;;;;;;0.50;0.43;;;;;;;25.09;37.71;101564.34;5101463;28;20043;-50
2022/07/24 05:18:37;;;;;;;2.05;0.63;;;;;;;25.00;38.22;101562.44;5103480;28;21191;-50
2022/07/24 05:21:05;;;;;;;0.95;0.65;;;;;;;25.13;37.73;101574.06;5103692;28;20183;-52
2022/07/24 05:23:34;;;;;;;1.48;0.50;;;;;;;25.17;37.94;101567.97;5103294;28;20050;-46
2022/07/24 05:26:03;;;;;;;1.23;0.40;;;;;;;25.25;37.50;101558.50;5101371;28;20109;-51
2022/07/24 05:28:31;;;;;;;2.63;0.80;;;;;;;25.25;37.65;101562.88;5103128;28;20118;-52
2022/07/24 05:30:59;;;;;;;1.70;0.85;;;;;;;25.20;37.69;101562.78;5085137;28;20122;-48
2022/07/24 05:33:27;;;;;;;2.25;1.25;;;;;;;25.16;38.14;101561.88;5084696;28;20391;-48
2022/07/24 05:35:54;;;;;;;2.08;0.60;;;;;;;25.22;37.81;101560.22;5083370;28;20528;-48
2022/07/24 05:38:22;;;;;;;1.33;0.60;;;;;;;25.13;38.00;101559.19;5103057;28;20047;-47
2022/07/24 05:40:51;;;;;;;2.42;1.30;;;;;;;25.03;38.59;101550.25;5102899;28;20031;-53
2022/07/24 05:43:19;;;;;;;1.70;0.60;;;;;;;25.04;38.68;101556.41;5103425;28;20031;-50
2022/07/24 05:45:47;;;;;;;1.65;0.70;;;;;;;25.13;38.49;101556.56;5101538;28;20082;-48
2022/07/24 05:48:14;;;;;;;1.85;0.80;;;;;;;25.17;38.48;101560.09;5102117;28;20088;-49
2022/07/24 05:50:42;;;;;;;3.90;0.80;;;;;;;25.30;38.36;101554.22;5102607;28;20097;-50
2022/07/24 05:53:11;;;;;;;1.77;0.60;;;;;;;25.28;38.75;101555.94;5103152;28;20036;-50
2022/07/24 05:55:39;;;;;;;2.63;0.63;;;;;;;25.40;38.45;101549.13;5101215;28;20603;-47
2022/07/24 05:58:07;;;;;;;1.80;0.65;;;;;;;25.52;37.99;101546.72;5102142;28;20127;-53
2022/07/24 06:00:35;;;;;;;2.75;0.80;;;;;;;25.78;37.56;101535.72;5102607;28;20032;-48
2022/07/24 06:03:03;;;;;;;6.70;0.82;;;;;;;26.07;37.27;101557.13;5101949;28;20134;-49
2022/07/24 06:05:32;;;;;;;3.78;0.70;;;;;;;26.10;37.11;101553.69;5100352;28;20038;-47
2022/07/24 06:07:59;;;;;;;1.52;0.60;;;;;;;26.10;37.08;101553.69;5101537;28;20505;-47
2022/07/24 06:10:27;;;;;;;1.20;0.60;;;;;;;26.17;37.78;101544.16;5101537;28;20036;-49
2022/07/24 06:12:56;;;;;;;7.88;0.77;;;;;;;26.22;37.27;101542.47;5102342;28;20028;-50
2022/07/24 06:15:24;;;;;;;1.38;0.82;;;;;;;26.41;36.89;101547.94;5100713;28;20796;-48
2022/07/24 06:17:53;;;;;;;2.20;0.70;;;;;;;26.48;37.03;101545.41;5101957;28;20591;-50
2022/07/24 06:20:20;;;;;;;1.58;0.80;;;;;;;26.58;36.99;101549.03;5102259;28;20024;-51
2022/07/24 06:22:49;;;;;;;1.77;0.70;;;;;;;26.51;37.17;101548.06;5102370;28;20863;-46
2022/07/24 06:25:18;;;;;;;3.40;0.70;;;;;;;26.45;37.54;101553.28;5100675;28;20035;-49
2022/07/24 06:27:48;;;;;;;1.60;0.80;;;;;;;26.52;37.40;101556.88;5102424;28;20119;-46
2022/07/24 06:30:21;;;;;;;1.33;0.60;;;;;;;26.48;37.68;101544.53;5102259;28;20030;-46
2022/07/24 06:32:50;;;;;;;0.45;0.40;;;;;;;26.50;37.77;101559.47;5102462;28;20662;-53
2022/07/24 06:35:17;;;;;;;2.60;0.52;;;;;;;26.56;38.03;101553.38;5100516;28;20542;-49
2022/07/24 06:37:45;;;;;;;1.48;0.50;;;;;;;26.66;37.52;101549.09;5101829;28;20573;-48
2022/07/24 06:40:14;;;;;;;4.43;0.70;;;;;;;26.65;37.88;101555.22;5102251;28;20032;-50
2022/07/24 06:42:42;;;;;;;2.00;0.70;;;;;;;26.68;37.71;101553.53;5102012;28;20106;-45
2022/07/24 06:45:10;;;;;;;0.82;0.65;;;;;;;26.66;37.93;101559.63;5081881;28;20032;-47
2022/07/24 06:47:39;;;;;;;1.92;0.80;;;;;;;26.63;38.03;101554.34;5101825;28;20097;-47
2022/07/24 06:50:08;;;;;;;2.05;0.60;;;;;;;26.71;37.98;101551.81;5101210;28;20031;-48
2022/07/24 06:52:36;;;;;;;2.80;0.60;;;;;;;26.81;37.98;101556.31;5101802;28;20036;-51
2022/07/24 06:55:04;;;;;;;1.05;0.60;;;;;;;26.90;37.80;101553.78;5100007;28;20025;-46
2022/07/24 06:57:32;;;;;;;1.63;0.60;;;;;;;26.93;37.79;101552.94;5083273;28;20071;-49
2022/07/24 07:00:00;;;;;;;2.50;0.82;;;;;;;26.85;38.18;101550.22;5083347;28;20110;-49
2022/07/24 07:02:28;;;;;;;2.97;0.98;;;;;;;26.86;38.23;101549.38;5101950;28;20059;-47
2022/07/24 07:04:55;;;;;;;0.65;0.43;;;;;;;26.96;38.15;101545.94;5099859;28;20584;-47
2022/07/24 07:07:24;;;;;;;0.90;0.52;;;;;;;26.92;38.37;101548.53;5101614;28;20507;-47
2022/07/24 07:09:54;;;;;;;2.55;0.70;;;;;;;27.02;38.58;101547.75;5101331;28;20062;-47
2022/07/24 07:12:22;;;;;;;8.85;0.82;;;;;;;26.97;38.81;101534.53;5101932;28;20039;-46
2022/07/24 07:14:50;;;;;;;1.17;0.40;;;;;;;27.23;38.31;101546.19;5100559;28;20478;-48
2022/07/24 07:17:17;;;;;;;1.13;0.63;;;;;;;27.32;38.20;101548.88;5101126;28;20047;-48
2022/07/24 07:19:45;;;;;;;1.08;0.50;;;;;;;27.40;38.36;101546.31;5101407;28;20028;-48
2022/07/24 07:22:13;;;;;;;2.47;0.63;;;;;;;27.35;38.74;101542.78;5101285;28;21285;-46
2022/07/24 07:24:41;;;;;;;0.95;0.50;;;;;;;27.39;38.90;101552.44;5100550;28;20035;-50
2022/07/24 07:27:10;;;;;;;1.10;0.40;;;;;;;27.45;39.34;101552.50;5082841;28;20538;-50
2022/07/24 07:29:37;;;;;;;1.60;0.68;;;;;;;27.50;39.13;101550.81;5082672;28;20031;-47
2022/07/24 07:32:04;;;;;;;3.03;1.05;;;;;;;27.53;39.07;101549.94;5100597;28;20039;-47
2022/07/24 07:34:33;;;;;;;1.42;0.68;;;;;;;27.70;39.71;101543.03;5101444;28;20542;-49
2022/07/24 07:37:01;;;;;;;1.15;0.60;;;;;;;27.67;39.01;101548.28;5081747;28;20044;-47
2022/07/24 07:39:30;;;;;;;2.05;0.60;;;;;;;27.57;39.50;101534.16;5082697;28;20122;-54
2022/07/24 07:41:57;;;;;;;0.77;0.70;;;;;;;27.62;40.59;101539.50;5100934;28;20410;-54
2022/07/24 07:44:26;;;;;;;0.55;0.45;;;;;;;27.68;40.78;101536.00;5100668;28;20391;-45
2022/07/24 07:46:53;;;;;;;1.33;0.50;;;;;;;27.69;40.76;101537.78;5099203;28;20058;-46
2022/07/24 07:49:22;;;;;;;2.25;0.70;;;;;;;27.62;41.96;101539.50;5100526;28;20042;-46
2022/07/24 07:51:51;;;;;;;3.88;0.68;;;;;;;27.77;41.21;101540.44;5100712;28;20036;-49
2022/07/24 07:54:19;;;;;;;1.65;0.70;;;;;;;27.85;40.77;101531.72;5101046;28;20512;-50
2022/07/24 07:56:47;;;;;;;1.75;0.60;;;;;;;27.84;41.23;101529.94;5081480;28;20067;-48
2022/07/24 07:59:15;;;;;;;1.98;0.70;;;;;;;27.80;41.94;101522.91;5101153;28;20087;-48
2022/07/24 08:01:44;;;;;;;2.60;0.90;;;;;;;27.80;41.86;101528.16;5100627;28;20059;-47
2022/07/24 08:04:12;;;;;;;2.42;0.85;;;;;;;27.83;42.06;101524.66;5101013;28;20111;-46
2022/07/24 08:06:41;;;;;;;5.13;1.00;;;;;;;27.84;41.92;101519.41;5099440;28;20054;-46
2022/07/24 08:09:10;;;;;;;1.42;0.50;;;;;;;27.90;41.65;101519.41;5101031;28;20505;-45
2022/07/24 08:11:38;;;;;;;1.55;0.50;;;;;;;27.93;41.99;101523.84;5082814;28;20035;-47
2022/07/24 08:14:05;;;;;;;2.33;0.75;;;;;;;27.94;41.33;101519.44;5100702;28;20031;-46
2022/07/24 08:16:34;;;;;;;1.35;0.70;;;;;;;27.93;41.63;101513.28;5098985;28;20034;-46
2022/07/24 08:19:01;;;;;;;3.10;0.75;;;;;;;28.09;42.19;101503.69;5100630;28;20789;-45
2022/07/24 08:21:31;;;;;;;3.92;1.05;;;;;;;28.24;41.69;101508.19;5100752;28;20166;-47
2022/07/24 08:23:59;;;;;;;2.88;0.80;;;;;;;28.18;41.91;101506.41;5082011;28;20113;-48
2022/07/24 08:26:30;;;;;;;2.85;0.60;;;;;;;28.25;42.19;101514.31;5098644;28;20035;-49
2022/07/24 08:28:58;;;;;;;2.50;0.80;;;;;;;28.27;41.89;101502.03;5100472;28;20031;-47
2022/07/24 08:31:27;;;;;;;2.22;0.68;;;;;;;28.17;42.36;101503.75;5101510;28;20088;-48
2022/07/24 08:33:56;;;;;;;2.08;0.80;;;;;;;28.28;42.27;101499.41;5104542;28;20032;-45
2022/07/24 08:36:24;;;;;;;1.88;0.68;;;;;;;28.24;42.38;101504.66;5102958;28;20089;-45
2022/07/24 08:38:53;;;;;;;3.15;0.60;;;;;;;28.22;42.55;101496.75;5104395;28;20027;-52
2022/07/24 08:41:22;;;;;;;2.67;0.63;;;;;;;28.31;42.27;101496.75;5104419;28;20122;-45
2022/07/24 08:43:50;;;;;;;2.33;0.80;;;;;;;28.40;42.35;101498.53;5104567;28;20036;-52
2022/07/24 08:46:17;;;;;;;1.60;0.63;;;;;;;28.33;42.15;101496.78;5102683;28;20063;-45
2022/07/24 08:48:46;;;;;;;0.73;0.50;;;;;;;28.30;42.16;101487.06;5103935;28;20482;-50
2022/07/24 08:51:15;;;;;;;2.55;0.50;;;;;;;28.34;42.38;101488.84;5104714;28;20032;-46
2022/07/24 08:53:44;;;;;;;1.85;0.52;;;;;;;28.01;42.91;101492.25;5104304;28;20039;-49
2022/07/24 08:56:12;;;;;;;5.85;1.15;;;;;;;27.96;43.17;101492.22;5102555;28;20224;-46
2022/07/24 08:58:42;;;;;;;2.45;1.02;;;;;;;28.02;42.98;101486.97;5104570;28;20028;-46
2022/07/24 09:01:10;;;;;;;0.95;0.50;;;;;;;28.08;42.77;101486.09;5085593;28;20031;-45
2022/07/24 09:03:42;;;;;;;2.50;0.60;;;;;;;28.18;42.63;101487.03;5103119;28;20073;-48
2022/07/24 09:06:10;;;;;;;2.17;0.85;;;;;;;28.30;42.49;101487.06;5103147;28;20024;-46
2022/07/24 09:08:41;;;;;;;3.72;0.50;;;;;;;28.28;42.58;101491.50;5104024;28;20038;-46
2022/07/24 09:11:10;;;;;;;1.40;0.93;;;;;;;28.20;42.69;101472.09;5103675;28;20181;-45
2022/07/24 09:16:26;;;;;;;1.92;0.70;;;;;;;28.38;42.29;101496.78;5095710;28;20115;-43
2022/07/24 09:19:15;;;;;;;0.98;0.52;;;;;;;27.58;44.10;101493.75;5103406;28;20043;-45
2022/07/24 09:21:44;;;;;;;0.93;0.50;;;;;;;27.70;44.24;101481.56;5103568;28;20501;-43
2022/07/24 09:24:15;;;;;;;1.85;0.63;;;;;;;27.62;44.49;101485.88;5085568;28;20663;-43
2022/07/24 09:26:49;;;;;;;2.38;0.65;;;;;;;27.07;45.58;101493.38;5101971;28;20071;-44
2022/07/24 09:29:19;;;;;;;3.70;0.60;;;;;;;26.54;46.53;101473.56;5103429;28;20036;-44
2022/07/24 09:31:53;;;;;;;2.15;0.70;;;;;;;26.87;45.68;101485.31;5103852;28;20032;-44
2022/07/24 09:34:21;;;;;;;3.83;0.82;;;;;;;26.78;45.74;101496.63;5102927;28;20415;-44
2022/07/24 09:36:59;;;;;;;2.80;0.55;;;;;;;27.07;45.24;101495.13;5066966;28;20040;-45
2022/07/24 09:39:28;;;;;;;2.47;0.70;;;;;;;26.82;45.79;101494.91;5103123;28;20027;-47
2022/07/24 09:41:57;;;;;;;2.30;0.70;;;;;;;26.83;45.54;101489.66;5103773;28;20031;-44
2022/07/24 09:44:26;;;;;;;1.58;0.63;;;;;;;26.80;45.93;101499.28;5101625;28;20040;-43
2022/07/24 09:47:00;;;;;;;2.78;0.77;;;;;;;26.96;45.36;101495.91;5101046;28;20031;-44
2022/07/24 09:49:29;;;;;;;3.00;0.77;;;;;;;26.86;45.42;101488.81;5103717;28;20030;-46
2022/07/24 09:52:16;;;;;;;2.28;0.93;;;;;;;27.16;44.90;101487.31;5103692;28;20036;-45
2022/07/24 09:54:47;;;;;;;2.50;0.65;;;;;;;27.41;44.47;101496.28;5084005;28;20474;-44
2022/07/24 09:57:20;;;;;;;3.33;0.70;;;;;;;26.90;45.42;101495.84;5103010;28;20084;-46
2022/07/24 09:59:50;;;;;;;4.55;0.45;;;;;;;26.91;45.43;101491.50;5103063;28;20036;-46
2022/07/24 10:02:19;;;;;;;1.60;0.47;;;;;;;27.24;44.77;101490.00;5083911;28;20053;-46
2022/07/24 10:04:49;;;;;;;2.22;0.50;;;;;;;27.23;44.59;101494.38;5083417;28;20409;-44
2022/07/24 10:07:19;;;;;;;2.30;0.95;;;;;;;27.36;44.66;101494.47;5084594;28;20084;-48
2022/07/24 10:09:50;;;;;;;2.78;0.60;;;;;;;27.36;44.34;101490.09;5084026;28;20110;-44
2022/07/24 10:12:21;;;;;;;2.42;0.60;;;;;;;27.35;44.26;101500.63;5085010;28;20748;-46
2022/07/24 10:14:52;;;;;;;4.00;0.77;;;;;;;27.35;44.63;101492.72;5101290;28;20115;-45
2022/07/24 10:17:22;;;;;;;2.47;0.88;;;;;;;27.42;44.62;101491.88;5101878;28;20067;-47
2022/07/24 10:19:51;;;;;;;3.70;0.80;;;;;;;27.74;43.85;101485.94;5102310;28;20062;-44
2022/07/24 10:22:21;;;;;;;2.95;0.68;;;;;;;27.83;43.54;101493.91;5102802;28;20032;-44
2022/07/24 10:24:54;;;;;;;2.28;0.70;;;;;;;28.05;43.00;101491.34;5100901;28;20065;-44
2022/07/24 10:27:42;;;;;;;1.27;0.50;;;;;;;28.07;43.04;101488.75;5102259;28;20036;-44
2022/07/24 10:30:11;;;;;;;3.53;0.93;;;;;;;28.06;43.00;101482.56;5084603;28;20035;-44
2022/07/24 10:32:40;;;;;;;1.70;0.73;;;;;;;27.54;43.77;101485.84;5102479;28;20032;-44
2022/07/24 10:35:27;;;;;;;2.72;0.77;;;;;;;27.74;43.63;101481.56;5100263;28;21237;-44
2022/07/24 10:37:59;;;;;;;2.15;0.75;;;;;;;27.60;43.99;101480.63;5102457;28;21178;-45
2022/07/24 10:40:43;;;;;;;2.38;0.82;;;;;;;27.74;43.79;101473.66;5101973;28;20521;-43
2022/07/24 10:43:13;;;;;;;0.93;0.50;;;;;;;27.71;43.94;101473.63;5067566;28;20682;-43
2022/07/24 10:45:47;;;;;;;3.13;0.63;;;;;;;27.70;43.53;101466.59;5100559;28;20044;-44
2022/07/24 10:48:25;;;;;;;1.90;0.60;;;;;;;27.48;44.14;101456.81;5083780;28;20031;-45
2022/07/24 10:51:06;;;;;;;4.18;0.93;;;;;;;27.51;43.82;101460.34;5101757;28;20023;-45
2022/07/24 10:53:37;;;;;;;3.60;0.60;;;;;;;27.61;43.71;101469.19;5101714;28;20032;-43
2022/07/24 10:56:26;;;;;;;2.58;0.80;;;;;;;27.40;44.03;101465.53;5099939;28;20054;-45
2022/07/24 10:59:07;;;;;;;2.88;0.85;;;;;;;27.05;44.70;101458.25;5101373;28;20058;-48
2022/07/24 11:01:38;;;;;;;1.75;0.80;;;;;;;27.11;44.64;101453.03;5101080;28;20576;-43
2022/07/24 11:04:26;;;;;;;2.80;0.77;;;;;;;27.43;44.01;101452.38;5101221;28;20035;-53
2022/07/24 11:07:00;;;;;;;2.05;0.77;;;;;;;27.58;43.86;101443.69;5100396;28;20561;-44
2022/07/24 11:09:29;;;;;;;2.10;0.90;;;;;;;27.79;43.46;101438.53;5101385;28;20031;-45
2022/07/24 11:11:56;;;;;;;2.08;0.60;;;;;;;27.85;43.28;101443.81;5101645;28;20142;-46
2022/07/24 11:14:24;;;;;;;4.00;0.73;;;;;;;27.65;43.54;101443.72;5101572;28;20494;-44
2022/07/24 11:17:30;;;;;;;1.80;0.73;;;;;;;27.71;43.52;101449.91;5081340;28;20461;-43
2022/07/24 11:19:58;;;;;;;1.30;0.50;;;;;;;27.73;43.49;101437.63;5094771;28;20430;-45
2022/07/24 11:22:40;;;;;;;2.05;0.60;;;;;;;27.79;43.51;101430.63;5101091;28;20130;-44
2022/07/24 11:25:10;;;;;;;2.15;0.75;;;;;;;27.84;43.43;101431.50;5099477;28;20045;-43
2022/07/24 11:27:49;;;;;;;2.72;0.77;;;;;;;27.68;43.76;101433.22;5100948;28;20093;-44
2022/07/24 11:30:17;;;;;;;1.00;0.60;;;;;;;27.28;44.33;101413.63;5101029;28;20118;-45
2022/07/24 11:32:45;;;;;;;2.38;0.70;;;;;;;27.34;44.27;101444.41;5101163;28;20500;-45
2022/07/24 11:35:14;;;;;;;1.60;0.60;;;;;;;27.09;44.98;101438.09;5080677;28;20123;-45
2022/07/24 11:37:43;;;;;;;1.67;0.73;;;;;;;27.28;44.40;101439.09;5100802;28;20115;-45